createdAt,value
2022-07-25T00:00:12.009Z,24.21
2022-07-25T00:03:00.318Z,24.21
2022-07-25T00:05:35.837Z,24.17
2022-07-25T00:08:06.322Z,24.13
2022-07-25T00:10:34.589Z,24.14
2022-07-25T00:13:02.910Z,24.19
2022-07-25T00:15:31.263Z,24.19
2022-07-25T00:17:59.729Z,24.20
2022-07-25T00:20:27.705Z,24.18
2022-07-25T00:22:55.949Z,24.15
2022-07-25T00:25:24.077Z,24.10
2022-07-25T00:27:52.346Z,24.11
2022-07-25T00:30:20.765Z,24.11
2022-07-25T00:32:49.525Z,24.10
2022-07-25T00:35:17.627Z,24.13
2022-07-25T00:37:45.577Z,24.12
2022-07-25T00:40:14.329Z,24.15
2022-07-25T00:42:42.255Z,24.17
2022-07-25T00:45:11.276Z,24.17
2022-07-25T00:47:39.306Z,24.12
2022-07-25T00:50:08.135Z,24.09
2022-07-25T00:52:36.966Z,24.07
2022-07-25T00:55:05.658Z,24.08
2022-07-25T00:57:34.371Z,24.07
2022-07-25T01:00:04.999Z,24.03
2022-07-25T01:02:33.409Z,23.98
2022-07-25T01:05:01.654Z,23.98
2022-07-25T01:07:30.526Z,23.95
2022-07-25T01:10:00.202Z,23.92
2022-07-25T01:12:28.737Z,23.92
2022-07-25T01:14:57.842Z,23.91
2022-07-25T01:17:25.780Z,23.90
2022-07-25T01:19:53.891Z,23.91
2022-07-25T01:22:22.477Z,23.91
2022-07-25T01:24:50.463Z,23.89
2022-07-25T01:27:18.916Z,23.81
2022-07-25T01:29:47.195Z,23.73
2022-07-25T01:32:15.382Z,23.67
2022-07-25T01:34:43.270Z,23.65
2022-07-25T01:37:11.440Z,23.66
2022-07-25T01:39:39.641Z,23.68
2022-07-25T01:42:07.928Z,23.67
2022-07-25T01:44:36.084Z,23.63
2022-07-25T01:47:04.255Z,23.58
2022-07-25T01:49:32.340Z,23.53
2022-07-25T01:52:01.078Z,23.52
2022-07-25T01:54:29.621Z,23.45
2022-07-25T01:56:58.293Z,23.41
2022-07-25T01:59:26.830Z,23.39
2022-07-25T02:01:55.144Z,23.37
2022-07-25T02:04:23.514Z,23.35
2022-07-25T02:06:52.334Z,23.31
2022-07-25T02:09:20.406Z,23.30
2022-07-25T02:11:48.696Z,23.30
2022-07-25T02:14:16.962Z,23.29
2022-07-25T02:16:45.051Z,23.27
2022-07-25T02:19:13.003Z,23.26
2022-07-25T02:21:41.055Z,23.25
2022-07-25T02:24:09.625Z,23.22
2022-07-25T02:26:38.334Z,23.22
2022-07-25T02:29:06.419Z,23.22
2022-07-25T02:31:34.828Z,23.21
2022-07-25T02:34:03.451Z,23.18
2022-07-25T02:36:31.707Z,23.13
2022-07-25T02:38:59.994Z,23.09
2022-07-25T02:41:28.232Z,23.06
2022-07-25T02:43:56.828Z,23.07
2022-07-25T02:46:25.778Z,23.12
2022-07-25T02:48:54.126Z,23.18
2022-07-25T02:51:22.403Z,23.23
2022-07-25T02:53:58.896Z,23.27
2022-07-25T02:56:29.931Z,23.26
2022-07-25T02:58:59.120Z,23.23
2022-07-25T03:01:27.626Z,23.20
2022-07-25T03:03:55.933Z,23.22
2022-07-25T03:06:24.514Z,23.23
2022-07-25T03:08:52.694Z,23.19
2022-07-25T03:11:22.625Z,23.10
2022-07-25T03:13:51.053Z,22.96
2022-07-25T03:16:19.128Z,22.80
2022-07-25T03:18:47.360Z,22.70
2022-07-25T03:21:15.727Z,22.57
2022-07-25T03:23:45.975Z,22.51
2022-07-25T03:26:17.033Z,22.48
2022-07-25T03:28:45.339Z,22.43
2022-07-25T03:31:13.626Z,22.39
2022-07-25T03:33:41.646Z,22.32
2022-07-25T03:36:11.750Z,22.26
2022-07-25T03:38:40.008Z,22.23
2022-07-25T03:41:08.056Z,22.23
2022-07-25T03:43:36.068Z,22.25
2022-07-25T03:46:05.194Z,22.21
2022-07-25T03:48:33.168Z,22.24
2022-07-25T03:51:06.575Z,22.27
2022-07-25T03:53:56.575Z,22.31
2022-07-25T03:56:24.535Z,22.33
2022-07-25T03:58:52.700Z,22.38
2022-07-25T04:01:21.209Z,22.47
2022-07-25T04:03:50.135Z,22.53
2022-07-25T04:06:18.830Z,22.60
2022-07-25T04:08:46.945Z,22.68
2022-07-25T04:11:15.463Z,22.74
2022-07-25T04:13:43.618Z,22.84
2022-07-25T04:16:14.813Z,22.90
2022-07-25T04:18:51.204Z,23.01
2022-07-25T04:21:19.927Z,23.11
2022-07-25T04:23:49.086Z,23.23
2022-07-25T04:26:17.219Z,23.40
2022-07-25T04:28:45.669Z,23.56
2022-07-25T04:31:14.221Z,23.73
2022-07-25T04:33:43.074Z,23.99
2022-07-25T04:36:11.209Z,24.13
2022-07-25T04:38:39.151Z,24.30
2022-07-25T04:41:07.167Z,24.53
2022-07-25T04:43:35.339Z,24.81
2022-07-25T04:46:03.489Z,25.02
2022-07-25T04:48:31.924Z,25.18
2022-07-25T04:51:00.197Z,25.31
2022-07-25T04:53:28.273Z,25.55
2022-07-25T04:55:56.315Z,25.73
2022-07-25T04:58:24.466Z,25.86
2022-07-25T05:00:52.681Z,26.07
2022-07-25T05:03:20.697Z,26.21
2022-07-25T05:05:48.643Z,26.34
2022-07-25T05:08:17.082Z,26.44
2022-07-25T05:10:45.301Z,26.53
2022-07-25T05:13:13.164Z,26.65
2022-07-25T05:15:41.424Z,26.74
2022-07-25T05:18:09.259Z,26.88
2022-07-25T05:20:37.602Z,26.98
2022-07-25T05:23:05.547Z,27.10
2022-07-25T05:25:33.724Z,27.21
2022-07-25T05:28:02.976Z,27.29
2022-07-25T05:30:30.886Z,27.37
2022-07-25T05:32:59.488Z,27.47
2022-07-25T05:35:27.537Z,27.54
2022-07-25T05:37:56.109Z,27.61
2022-07-25T05:40:24.426Z,27.69
2022-07-25T05:42:52.377Z,27.77
2022-07-25T05:45:20.955Z,27.86
2022-07-25T05:47:49.388Z,27.90
2022-07-25T05:50:17.641Z,27.91
2022-07-25T05:52:45.902Z,27.91
2022-07-25T05:55:14.257Z,28.05
2022-07-25T05:57:42.115Z,28.19
2022-07-25T06:00:10.892Z,28.32
2022-07-25T06:02:39.014Z,28.30
2022-07-25T06:05:07.697Z,28.36
2022-07-25T06:07:36.213Z,28.46
2022-07-25T06:10:04.913Z,28.57
2022-07-25T06:12:36.715Z,28.60
2022-07-25T06:15:06.825Z,28.67
2022-07-25T06:17:41.043Z,28.74
2022-07-25T06:20:09.681Z,28.78
2022-07-25T06:22:37.502Z,28.78
2022-07-25T06:25:06.416Z,28.87
2022-07-25T06:27:35.714Z,28.98
2022-07-25T06:30:06.627Z,29.08
2022-07-25T06:32:39.506Z,29.11
2022-07-25T06:35:07.858Z,29.15
2022-07-25T06:37:38.571Z,29.15
2022-07-25T06:40:07.885Z,29.20
2022-07-25T06:42:40.433Z,29.27
2022-07-25T06:45:10.073Z,29.34
2022-07-25T06:47:39.747Z,29.36
2022-07-25T06:50:11.302Z,29.32
2022-07-25T06:52:40.237Z,29.34
2022-07-25T06:55:10.196Z,29.29
2022-07-25T06:57:38.292Z,29.29
2022-07-25T07:00:10.044Z,29.31
2022-07-25T07:02:57.035Z,29.24
2022-07-25T07:05:28.345Z,29.18
2022-07-25T07:07:56.673Z,29.03
2022-07-25T07:10:25.714Z,28.92
2022-07-25T07:13:15.318Z,28.91
2022-07-25T07:15:49.692Z,28.93
2022-07-25T07:18:19.150Z,29.02
2022-07-25T07:20:47.498Z,29.20
2022-07-25T07:23:16.883Z,29.27
2022-07-25T07:25:47.555Z,29.35
2022-07-25T07:28:15.974Z,29.54
2022-07-25T07:31:14.779Z,29.68
2022-07-25T07:33:35.838Z,29.95
2022-07-25T07:36:04.030Z,30.16
2022-07-25T07:38:32.671Z,30.35
2022-07-25T07:41:00.915Z,30.41
2022-07-25T07:43:31.956Z,30.49
2022-07-25T07:46:03.352Z,30.61
2022-07-25T07:48:33.011Z,30.74
2022-07-25T07:51:02.524Z,30.97
2022-07-25T07:53:48.992Z,31.06
2022-07-25T07:56:19.260Z,31.20
2022-07-25T07:58:48.193Z,31.30
2022-07-25T08:01:16.695Z,31.40
2022-07-25T08:03:45.089Z,31.48
2022-07-25T08:06:13.186Z,31.58
2022-07-25T08:08:41.372Z,31.83
2022-07-25T08:11:09.353Z,32.06
2022-07-25T08:13:38.509Z,32.26
2022-07-25T08:16:07.252Z,32.43
2022-07-25T08:18:35.617Z,32.47
2022-07-25T08:21:06.399Z,32.55
2022-07-25T08:23:35.598Z,32.73
2022-07-25T08:26:04.122Z,32.82
2022-07-25T08:28:32.812Z,32.84
2022-07-25T08:31:01.102Z,32.90
2022-07-25T08:33:29.468Z,32.93
2022-07-25T08:35:58.929Z,33.01
2022-07-25T08:38:28.082Z,32.97
2022-07-25T08:40:57.009Z,33.01
2022-07-25T08:43:25.194Z,33.04
2022-07-25T08:45:55.284Z,33.09
2022-07-25T08:48:25.743Z,33.10
2022-07-25T08:50:57.443Z,33.09
2022-07-25T08:53:34.662Z,33.16
2022-07-25T08:56:14.834Z,33.37
2022-07-25T08:58:46.379Z,33.41
2022-07-25T09:01:15.251Z,33.46
2022-07-25T09:03:44.521Z,33.56
2022-07-25T09:06:21.032Z,33.64
2022-07-25T09:08:52.752Z,33.72
2022-07-25T09:11:32.808Z,33.79
2022-07-25T09:14:01.825Z,33.83
2022-07-25T09:16:35.519Z,33.88
2022-07-25T09:19:24.800Z,33.92
2022-07-25T09:21:59.964Z,34.13
2022-07-25T09:24:28.886Z,34.32
2022-07-25T09:27:00.247Z,34.39
2022-07-25T09:29:30.945Z,34.40
2022-07-25T09:32:01.506Z,34.33
2022-07-25T09:34:37.885Z,34.21
2022-07-25T09:37:12.654Z,34.26
2022-07-25T09:39:46.447Z,34.15
2022-07-25T09:42:17.556Z,34.13
2022-07-25T09:45:05.293Z,34.22
2022-07-25T09:47:37.027Z,34.23
2022-07-25T09:50:07.406Z,34.23
2022-07-25T09:52:37.017Z,34.16
2022-07-25T09:55:06.146Z,34.11
2022-07-25T09:57:34.088Z,34.21
2022-07-25T10:00:02.670Z,34.26
2022-07-25T10:02:51.309Z,34.29
2022-07-25T10:06:03.116Z,34.29
2022-07-25T10:08:40.066Z,34.32
2022-07-25T10:11:24.684Z,34.38
2022-07-25T10:13:54.449Z,34.50
2022-07-25T10:16:28.130Z,34.63
2022-07-25T10:18:58.545Z,34.68
2022-07-25T10:21:28.443Z,34.70
2022-07-25T10:24:00.820Z,34.59
2022-07-25T10:26:29.268Z,34.57
2022-07-25T10:28:58.324Z,34.59
2022-07-25T10:31:36.571Z,34.57
2022-07-25T10:34:07.828Z,34.54
2022-07-25T10:36:49.514Z,34.58
2022-07-25T10:39:19.404Z,34.65
2022-07-25T10:41:52.070Z,34.77
2022-07-25T10:44:20.470Z,34.81
2022-07-25T10:46:49.298Z,34.84
2022-07-25T10:49:31.860Z,34.90
2022-07-25T10:52:03.473Z,34.90
2022-07-25T10:54:39.395Z,34.86
2022-07-25T10:57:15.594Z,34.91
2022-07-25T10:59:43.480Z,34.96
2022-07-25T11:02:19.959Z,34.93
2022-07-25T11:05:02.571Z,34.96
2022-07-25T11:07:36.342Z,35.11
2022-07-25T11:10:05.832Z,35.23
2022-07-25T11:12:33.986Z,35.25
2022-07-25T11:15:07.318Z,35.28
2022-07-25T11:17:35.535Z,35.36
2022-07-25T11:20:11.619Z,35.46
2022-07-25T11:22:39.659Z,35.66
2022-07-25T11:25:16.566Z,35.94
2022-07-25T11:27:45.245Z,36.05
2022-07-25T11:30:16.391Z,36.09
2022-07-25T11:32:50.234Z,36.19
2022-07-25T11:35:26.028Z,36.21
2022-07-25T11:37:55.412Z,36.24
2022-07-25T11:40:23.821Z,36.35
2022-07-25T11:43:00.056Z,36.42
2022-07-25T11:45:30.719Z,36.49
2022-07-25T11:48:04.691Z,36.63
2022-07-25T11:50:34.568Z,36.58
2022-07-25T11:53:05.422Z,36.43
2022-07-25T11:55:43.373Z,36.41
2022-07-25T11:58:14.171Z,36.33
2022-07-25T12:00:47.840Z,36.36
2022-07-25T12:03:20.505Z,36.44
2022-07-25T12:05:49.542Z,36.31
2022-07-25T12:08:20.399Z,36.15
2022-07-25T12:10:51.723Z,35.91
2022-07-25T12:13:28.934Z,35.83
2022-07-25T12:15:59.356Z,35.90
2022-07-25T12:18:28.029Z,36.10
2022-07-25T12:20:55.965Z,36.19
2022-07-25T12:23:24.019Z,36.26
2022-07-25T12:25:52.345Z,36.37
2022-07-25T12:28:20.433Z,36.56
2022-07-25T12:30:56.001Z,36.65
2022-07-25T12:33:25.004Z,36.69
2022-07-25T12:35:53.315Z,36.80
2022-07-25T12:38:21.617Z,37.01
2022-07-25T12:40:50.470Z,37.12
2022-07-25T12:43:18.707Z,37.23
2022-07-25T12:45:47.134Z,37.45
2022-07-25T12:48:15.719Z,37.67
2022-07-25T12:50:44.576Z,37.84
2022-07-25T12:53:13.681Z,37.85
2022-07-25T12:55:41.738Z,37.89
2022-07-25T12:58:10.482Z,37.93
2022-07-25T13:00:38.763Z,37.91
2022-07-25T13:03:07.231Z,37.90
2022-07-25T13:05:36.017Z,37.64
2022-07-25T13:08:06.186Z,37.41
2022-07-25T13:10:34.374Z,37.34
2022-07-25T13:13:02.571Z,37.29
2022-07-25T13:15:30.842Z,37.24
2022-07-25T13:17:58.793Z,37.22
2022-07-25T13:20:27.234Z,37.19
2022-07-25T13:22:55.641Z,37.12
2022-07-25T13:25:23.796Z,37.11
2022-07-25T13:27:52.004Z,37.09
2022-07-25T13:30:20.276Z,37.15
2022-07-25T13:32:50.361Z,37.10
2022-07-25T13:35:20.606Z,37.11
2022-07-25T13:37:49.596Z,37.22
2022-07-25T13:40:17.886Z,37.37
2022-07-25T13:42:46.083Z,37.48
2022-07-25T13:45:14.101Z,37.40
2022-07-25T13:47:42.328Z,37.34
2022-07-25T13:50:10.514Z,37.14
2022-07-25T13:52:38.634Z,36.94
2022-07-25T13:55:07.413Z,36.79
2022-07-25T13:57:35.907Z,36.67
2022-07-25T14:00:05.322Z,36.64
2022-07-25T14:02:33.609Z,36.78
2022-07-25T14:05:04.220Z,36.79
2022-07-25T14:07:32.768Z,36.79
2022-07-25T14:10:01.174Z,36.76
2022-07-25T14:12:29.473Z,36.71
2022-07-25T14:14:57.772Z,36.84
2022-07-25T14:17:29.828Z,36.96
2022-07-25T14:19:58.673Z,37.06
2022-07-25T14:22:26.885Z,37.03
2022-07-25T14:24:55.114Z,36.92
2022-07-25T14:27:23.320Z,36.83
2022-07-25T14:29:51.439Z,36.83
2022-07-25T14:32:19.999Z,36.79
2022-07-25T14:34:48.073Z,36.53
2022-07-25T14:37:16.762Z,36.37
2022-07-25T14:39:45.739Z,36.30
2022-07-25T14:42:13.894Z,36.29
2022-07-25T14:44:42.155Z,36.26
2022-07-25T14:47:12.564Z,36.18
2022-07-25T14:49:41.333Z,36.26
2022-07-25T14:52:11.837Z,36.39
2022-07-25T14:54:40.943Z,36.23
2022-07-25T14:57:09.944Z,36.20
2022-07-25T14:59:38.979Z,36.24
2022-07-25T15:02:07.564Z,36.22
2022-07-25T15:04:35.426Z,36.19
2022-07-25T15:07:03.799Z,36.14
2022-07-25T15:09:31.711Z,36.05
2022-07-25T15:12:00.076Z,36.05
2022-07-25T15:14:28.238Z,36.06
2022-07-25T15:16:56.734Z,36.10
2022-07-25T15:19:25.785Z,36.01
2022-07-25T15:21:54.855Z,35.92
2022-07-25T15:24:28.731Z,35.87
2022-07-25T15:26:58.315Z,35.75
2022-07-25T15:29:27.831Z,35.73
2022-07-25T15:31:56.215Z,35.77
2022-07-25T15:34:24.156Z,35.72
2022-07-25T15:36:54.333Z,35.60
2022-07-25T15:39:23.174Z,35.46
2022-07-25T15:41:51.370Z,35.27
2022-07-25T15:44:19.686Z,35.15
2022-07-25T15:46:48.051Z,35.00
2022-07-25T15:49:16.287Z,34.95
2022-07-25T15:51:44.519Z,34.93
2022-07-25T15:54:12.879Z,34.86
2022-07-25T15:56:41.363Z,34.74
2022-07-25T15:59:09.864Z,34.66
2022-07-25T16:01:38.613Z,34.59
2022-07-25T16:04:06.953Z,34.60
2022-07-25T16:06:35.225Z,34.60
2022-07-25T16:09:04.115Z,34.56
2022-07-25T16:11:33.749Z,34.54
2022-07-25T16:14:02.271Z,34.42
2022-07-25T16:16:30.232Z,34.41
2022-07-25T16:18:58.463Z,34.39
2022-07-25T16:21:26.877Z,34.34
2022-07-25T16:23:55.156Z,34.28
2022-07-25T16:26:23.324Z,34.22
2022-07-25T16:28:54.039Z,34.22
2022-07-25T16:31:26.753Z,34.12
2022-07-25T16:33:54.872Z,34.04
2022-07-25T16:36:23.198Z,34.03
2022-07-25T16:38:53.373Z,34.05
2022-07-25T16:41:21.560Z,34.05
2022-07-25T16:43:49.756Z,34.01
2022-07-25T16:46:17.988Z,33.94
2022-07-25T16:48:46.531Z,33.87
2022-07-25T16:51:14.770Z,33.79
2022-07-25T16:53:42.921Z,33.69
2022-07-25T16:56:11.244Z,33.60
2022-07-25T16:58:39.560Z,33.54
2022-07-25T17:01:08.173Z,33.53
2022-07-25T17:03:36.325Z,33.54
2022-07-25T17:06:04.790Z,33.46
2022-07-25T17:08:36.860Z,33.32
2022-07-25T17:11:05.657Z,33.17
2022-07-25T17:13:33.810Z,33.06
2022-07-25T17:16:01.821Z,32.99
2022-07-25T17:18:30.224Z,32.91
2022-07-25T17:20:58.692Z,32.89
2022-07-25T17:23:26.802Z,32.87
2022-07-25T17:25:54.762Z,32.79
2022-07-25T17:28:22.913Z,32.74
2022-07-25T17:30:51.221Z,32.67
2022-07-25T17:33:19.326Z,32.65
2022-07-25T17:35:47.874Z,32.57
2022-07-25T17:38:16.131Z,32.48
2022-07-25T17:40:44.578Z,32.39
2022-07-25T17:43:12.495Z,32.30
2022-07-25T17:45:41.164Z,32.25
2022-07-25T17:48:09.271Z,32.21
2022-07-25T17:50:37.150Z,32.13
2022-07-25T17:53:05.131Z,32.06
2022-07-25T17:55:38.505Z,31.98
2022-07-25T17:58:06.831Z,31.90
2022-07-25T18:00:35.060Z,31.83
2022-07-25T18:03:03.793Z,31.77
2022-07-25T18:05:32.403Z,31.71
2022-07-25T18:08:01.873Z,31.66
2022-07-25T18:10:30.229Z,31.57
2022-07-25T18:13:00.335Z,31.50
2022-07-25T18:15:28.898Z,31.44
2022-07-25T18:17:56.852Z,31.38
2022-07-25T18:20:25.401Z,31.34
2022-07-25T18:22:53.283Z,31.28
2022-07-25T18:25:21.283Z,31.23
2022-07-25T18:27:49.459Z,31.16
2022-07-25T18:30:17.844Z,31.08
2022-07-25T18:32:46.177Z,30.96
2022-07-25T18:35:14.386Z,30.81
2022-07-25T18:37:44.197Z,30.65
2022-07-25T18:40:13.172Z,30.54
2022-07-25T18:42:41.715Z,30.46
2022-07-25T18:45:10.651Z,30.38
2022-07-25T18:47:40.469Z,30.28
2022-07-25T18:50:08.792Z,30.19
2022-07-25T18:52:37.578Z,30.10
2022-07-25T18:55:08.976Z,30.04
2022-07-25T18:57:37.727Z,30.00
2022-07-25T19:00:08.401Z,29.99
2022-07-25T19:02:37.081Z,29.97
2022-07-25T19:05:05.786Z,29.92
2022-07-25T19:07:35.467Z,29.89
2022-07-25T19:10:03.889Z,29.85
2022-07-25T19:12:32.323Z,29.80
2022-07-25T19:15:00.372Z,29.75
2022-07-25T19:17:28.340Z,29.67
2022-07-25T19:19:56.428Z,29.58
2022-07-25T19:22:24.367Z,29.45
2022-07-25T19:24:52.399Z,29.33
2022-07-25T19:27:20.605Z,29.23
2022-07-25T19:29:48.741Z,29.14
2022-07-25T19:32:18.124Z,29.08
2022-07-25T19:34:46.666Z,29.03
2022-07-25T19:37:14.732Z,28.95
2022-07-25T19:39:42.998Z,28.85
2022-07-25T19:42:12.371Z,28.79
2022-07-25T19:44:40.675Z,28.73
2022-07-25T19:47:11.837Z,28.68
2022-07-25T19:49:40.881Z,28.63
2022-07-25T19:52:10.785Z,28.57
2022-07-25T19:54:38.828Z,28.50
2022-07-25T19:57:07.237Z,28.44
2022-07-25T19:59:35.450Z,28.36
2022-07-25T20:02:04.625Z,28.31
2022-07-25T20:04:33.363Z,28.23
2022-07-25T20:07:02.385Z,28.16
2022-07-25T20:09:30.529Z,28.09
2022-07-25T20:11:59.106Z,28.02
2022-07-25T20:14:27.164Z,27.95
2022-07-25T20:16:55.203Z,27.89
2022-07-25T20:19:24.053Z,27.83
2022-07-25T20:21:52.267Z,27.80
2022-07-25T20:24:21.738Z,27.75
2022-07-25T20:26:50.340Z,27.73
2022-07-25T20:29:18.440Z,27.66
2022-07-25T20:31:46.754Z,27.59
2022-07-25T20:34:15.785Z,27.51
2022-07-25T20:36:43.719Z,27.44
2022-07-25T20:39:11.996Z,27.34
2022-07-25T20:41:41.605Z,27.26
2022-07-25T20:44:12.907Z,27.18
2022-07-25T20:46:40.993Z,27.08
2022-07-25T20:49:09.838Z,27.01
2022-07-25T20:51:42.296Z,26.96
2022-07-25T20:54:10.369Z,26.90
2022-07-25T20:56:38.365Z,26.84
2022-07-25T20:59:07.306Z,26.77
2022-07-25T21:01:37.524Z,26.70
2022-07-25T21:04:07.679Z,26.64
2022-07-25T21:06:36.789Z,26.56
2022-07-25T21:09:06.307Z,26.53
2022-07-25T21:11:37.429Z,26.50
2022-07-25T21:14:07.082Z,26.46
2022-07-25T21:16:35.627Z,26.41
2022-07-25T21:19:04.008Z,26.34
2022-07-25T21:21:32.192Z,26.28
2022-07-25T21:24:01.686Z,26.23
2022-07-25T21:26:30.625Z,26.19
2022-07-25T21:28:58.442Z,26.14
2022-07-25T21:31:26.681Z,26.10
2022-07-25T21:33:54.655Z,26.04
2022-07-25T21:36:23.046Z,25.96
2022-07-25T21:38:51.082Z,25.86
2022-07-25T21:41:19.397Z,25.79
2022-07-25T21:43:47.905Z,25.72
2022-07-25T21:46:16.056Z,25.64
2022-07-25T21:49:03.202Z,25.57
2022-07-25T21:51:40.645Z,25.50
2022-07-25T21:54:09.629Z,25.43
2022-07-25T21:56:37.651Z,25.40
2022-07-25T21:59:07.218Z,25.37
2022-07-25T22:01:35.507Z,25.37
2022-07-25T22:04:04.777Z,25.36
2022-07-25T22:06:32.813Z,25.36
2022-07-25T22:09:01.595Z,25.35
2022-07-25T22:11:39.220Z,25.34
2022-07-25T22:14:14.743Z,25.33
2022-07-25T22:16:43.220Z,25.31
2022-07-25T22:19:11.730Z,25.27
2022-07-25T22:21:41.248Z,25.24
2022-07-25T22:24:10.606Z,25.20
2022-07-25T22:26:38.618Z,25.13
2022-07-25T22:29:07.013Z,25.06
2022-07-25T22:31:35.416Z,25.01
2022-07-25T22:34:03.546Z,24.96
2022-07-25T22:36:31.430Z,24.92
2022-07-25T22:38:59.592Z,24.89
2022-07-25T22:41:27.840Z,24.86
2022-07-25T22:43:58.637Z,24.83
2022-07-25T22:46:28.978Z,24.82
2022-07-25T22:48:59.266Z,24.82
2022-07-25T22:51:28.947Z,24.81
2022-07-25T22:53:58.272Z,24.78
2022-07-25T22:56:26.891Z,24.76
2022-07-25T22:58:55.533Z,24.74
2022-07-25T23:01:23.834Z,24.69
2022-07-25T23:03:52.527Z,24.67
2022-07-25T23:06:21.251Z,24.64
2022-07-25T23:08:49.851Z,24.62
2022-07-25T23:11:18.024Z,24.59
2022-07-25T23:13:46.278Z,24.56
2022-07-25T23:16:14.343Z,24.52
2022-07-25T23:18:42.655Z,24.48
2022-07-25T23:21:11.810Z,24.43
2022-07-25T23:23:39.841Z,24.40
2022-07-25T23:26:08.231Z,24.37
2022-07-25T23:28:36.326Z,24.33
2022-07-25T23:31:04.367Z,24.31
2022-07-25T23:33:32.628Z,24.31
2022-07-25T23:36:01.174Z,24.30
2022-07-25T23:38:29.129Z,24.26
2022-07-25T23:40:57.083Z,24.25
2022-07-25T23:43:42.489Z,24.26
2022-07-25T23:46:13.118Z,24.25
2022-07-25T23:48:41.063Z,24.23
2022-07-25T23:51:09.019Z,24.21
2022-07-25T23:53:37.911Z,24.17
2022-07-25T23:56:06.200Z,24.13
2022-07-25T23:58:34.519Z,24.10
